Strona główna
METAR-TAF:

METAR-TAF

Lotnisko :

Derby, Australia

Szerokość geograficzna: 17-34-53S, Długość geograficzna: 123-49-42E, wysokość: 91 m

Aktualna obserwacja pogody

Raport powstał 29 minut temu, godzina 09:00 UTC
Wiatr 9 kt od południe
Temperatura 25°C
Wilgotność 24%
Ciśnienie 1015 hPa
Widzialność 10 km lub więcej

METAR: YCIN 040900Z AUTO 17009KT 9999 // NCD 25/03 Q1015

czas: 17:29 (09:29 UTC)

Prognoza

Raport powstał 3 godziny i 12 minut temu, godzina 06:17 UTC
Prognoza ważna od 04 godzina 08 UTC do 04 godzina 20 UTC
Wiatr 10 kt od południowy wschód
Widzialność 10 km lub więcej
Brak chmur poniżej 1500 m i brak chmur cumulonimbus

TAF: YCIN 040617Z 0408/0420 13010KT CAVOK

Obserwacja i prognoza pogody dla ponad 4000 lotnisk (raport METAR i TAF).

Dostępne stacje oznaczono żółtymi i czerwonymi punktami na mapie.

Najedź kursorem aby zobaczyć nazwę stacji.

Kliknij aby zobaczyć obserwacje i prognozy pogody.

Aby zmienić mapę: kliknij na zielony przycisk z czarnym krzyżykiem, aby powiększyć; na zielony przycisk z myślnikiem, aby pomniejszyć; na zielone strzałki, aby przejść do map sąsiednich.


METAR-TAF: